Etusivu
METAR-TAF:

METAR-TAF

Lentoasemat :

Antananarivo, Madagaskar

Leveyspiiri: 18-48S, Pituuspiiri: 047-29E, korkeus merenpinnasta: 1279 m

Tämänhetkinen sää

Tämä raportti tehtiin 6 minuuttia sitten, kello 13.30 UTC
Tuuli 10 kn etelästä/kaakosta, vaihdellen idän/kaakon ja etelän välillä
Lämpötila 19°C
Kosteus 56%
Ilmanpaine 1021 hPa
Näkyvyys 10 km tai enemmän
Hajanaisia pilviä 2000 ft:n korkeudessa, Cumulonimbus.

METAR: FMMI 201330Z 16010KT 110V190 9999 SCT020CB 19/10 Q1021 NOSIG

Aika: 16:36 (13:36 UTC)

Sääennuste

Tämä raportti tehtiin 2 tuntia ja 36 minuuttia sitten, kello 11.00 UTC
Ennuste voimassa 20. päivästä klo 12 UTC - 21. päivään klo 18 UTC
Tuuli 10 kn kaakosta
Näkyvyys 10 km tai enemmän
Hajanaisia pilviä 1700 ft:n korkeudessa
Hajanaisia pilviä 2000 ft:n korkeudessa

TAF: FMMI 201100Z 2012/2118 14010KT 9999 SCT017 SCT020

Säähavainnot ja -ennusteet yli 4000 lentoasemalta (METAR- ja TAF-raportit).

Käytössä olevat sääasemat on merkitty karttaan keltaisilla ja punaisilla pisteillä.

Aseta hiiri pisteen päälle nähdäksesi sääaseman nimen.

Klikkaa sitten nähdäksesi säähavainnot ja -ennusteet.

Kartan vaihtaminen: klikkaa mustalla rastilla varustettuja vihreitä pisteitä, niin voit zoomata sisään; viivalla varustettua vihreää pistettä, niin voit zoomata ulos tai vihreitä nuolia, niin pääset viereisille kartoille.


METAR-TAF: